Time;durP1;ratioP1;P1;durP2;ratioP2;P2;SDS_P1;SDS_P2;PMS_P1;PMS_P2;Temp;Humidity;BMP_temperature;BMP_pressure;BME280_temperature;BME280_humidity;BME280_pressure;Samples;Min_cycle;Max_cycle;Signal;HPM_P1;HPM_P2
2020/12/20 00:01:01;;;;;;;1.98;1.77;;;11.40;81.40;;;;;;5055137;28;20133;-43
2020/12/20 00:03:27;;;;;;;2.60;1.90;;;11.40;81.40;;;;;;5054663;28;20393;-44
2020/12/20 00:05:53;;;;;;;2.15;1.95;;;11.40;81.40;;;;;;5055002;28;20045;-40
2020/12/20 00:08:18;;;;;;;2.30;2.00;;;11.40;81.40;;;;;;5049357;28;20048;-44
2020/12/20 00:10:44;;;;;;;2.35;2.10;;;11.40;81.40;;;;;;5054940;28;20079;-42
2020/12/20 00:13:10;;;;;;;2.08;1.88;;;11.40;81.40;;;;;;5054698;28;20064;-42
2020/12/20 00:15:35;;;;;;;2.08;1.88;;;11.40;81.40;;;;;;5054890;28;20060;-43
2020/12/20 00:18:01;;;;;;;2.97;2.10;;;11.40;81.40;;;;;;5052133;28;20110;-44
2020/12/20 00:20:47;;;;;;;2.15;1.95;;;11.40;81.40;;;;;;5035591;28;20408;-40
2020/12/20 00:23:13;;;;;;;2.10;1.80;;;11.40;81.40;;;;;;5054921;28;20053;-42
2020/12/20 00:25:39;;;;;;;2.35;2.05;;;11.40;81.50;;;;;;5054781;28;20378;-41
2020/12/20 00:28:04;;;;;;;2.13;1.92;;;11.40;81.40;;;;;;5054810;28;20052;-40
2020/12/20 00:30:30;;;;;;;2.35;1.98;;;11.40;81.40;;;;;;5049815;28;20097;-42
2020/12/20 00:32:56;;;;;;;2.75;2.50;;;11.40;81.40;;;;;;5054254;28;20041;-45
2020/12/20 00:35:21;;;;;;;2.30;2.00;;;11.40;81.50;;;;;;5054354;28;20129;-41
2020/12/20 00:37:48;;;;;;;2.00;1.80;;;11.40;81.40;;;;;;5054274;28;20049;-42
2020/12/20 00:40:13;;;;;;;1.83;1.73;;;11.40;81.40;;;;;;5049157;28;20037;-43
2020/12/20 00:42:59;;;;;;;3.30;2.08;;;11.40;81.40;;;;;;5038094;28;20041;-40
2020/12/20 00:45:24;;;;;;;1.98;1.70;;;11.40;81.40;;;;;;5054022;28;20049;-42
2020/12/20 00:47:50;;;;;;;2.17;1.95;;;11.40;81.40;;;;;;5053913;28;20068;-43
2020/12/20 00:50:36;;;;;;;2.40;2.20;;;11.40;81.50;;;;;;5034583;28;20049;-42
2020/12/20 00:53:01;;;;;;;2.72;1.58;;;11.40;81.50;;;;;;5050714;28;20098;-45
2020/12/20 00:55:50;;;;;;;2.33;1.80;;;11.40;81.40;;;;;;5034819;28;20374;-46
2020/12/20 00:58:16;;;;;;;1.70;1.60;;;11.40;81.50;;;;;;5035647;28;20132;-46
2020/12/20 01:00:41;;;;;;;2.38;1.83;;;11.40;81.50;;;;;;5050754;28;20116;-40
2020/12/20 01:03:07;;;;;;;2.42;2.10;;;11.40;81.40;;;;;;5047577;28;20051;-45
2020/12/20 01:05:53;;;;;;;1.98;1.77;;;11.40;81.50;;;;;;5036887;28;20098;-43
2020/12/20 01:08:18;;;;;;;1.80;1.70;;;11.40;81.40;;;;;;5053520;28;20057;-42
2020/12/20 01:11:07;;;;;;;2.13;1.60;;;11.40;81.50;;;;;;5033663;28;20428;-40
2020/12/20 01:13:52;;;;;;;1.70;1.60;;;11.40;81.50;;;;;;5037857;28;20555;-42
2020/12/20 01:16:24;;;;;;;2.95;2.17;;;11.40;81.50;;;;;;5053742;28;20044;-42
2020/12/20 01:18:50;;;;;;;2.25;1.80;;;11.40;81.50;;;;;;5053553;28;20446;-48
2020/12/20 01:21:35;;;;;;;;;;;11.40;81.50;;;;;;5037290;28;20088;-44
2020/12/20 01:24:02;;;;;;;2.28;1.50;;;11.40;81.50;;;;;;5047769;28;19920;-43
2020/12/20 01:26:48;;;;;;;3.42;1.90;;;11.40;81.50;;;;;;5035565;28;20040;-43
2020/12/20 01:29:13;;;;;;;2.00;1.80;;;11.40;81.50;;;;;;5053591;28;20056;-44
2020/12/20 01:31:59;;;;;;;2.00;1.77;;;11.40;81.50;;;;;;5037685;28;20041;-43
2020/12/20 01:34:25;;;;;;;1.92;1.60;;;11.40;81.50;;;;;;5049836;28;20056;-43
2020/12/20 01:37:10;;;;;;;2.28;1.50;;;11.40;81.50;;;;;;5035618;28;20127;-42
2020/12/20 01:39:56;;;;;;;2.47;2.03;;;11.40;81.50;;;;;;5037240;28;20056;-44
2020/12/20 01:42:21;;;;;;;1.65;1.55;;;11.30;81.50;;;;;;5052944;28;20045;-46
2020/12/20 01:45:07;;;;;;;2.15;1.83;;;11.40;81.50;;;;;;5031608;28;20045;-42
2020/12/20 01:47:34;;;;;;;1.88;1.58;;;11.40;81.50;;;;;;5053013;28;20455;-43
2020/12/20 01:50:00;;;;;;;2.88;1.90;;;11.40;81.50;;;;;;5052915;28;20078;-43
2020/12/20 01:52:46;;;;;;;2.35;1.63;;;11.40;81.50;;;;;;5036003;28;20084;-43
2020/12/20 01:55:13;;;;;;;2.38;1.70;;;11.30;81.50;;;;;;5049503;28;20585;-42
2020/12/20 01:57:39;;;;;;;1.70;1.60;;;11.40;81.50;;;;;;5047369;28;20045;-46
2020/12/20 02:00:25;;;;;;;2.58;1.83;;;11.40;81.50;;;;;;5033702;28;20486;-44
2020/12/20 02:03:11;;;;;;;;;;;11.40;81.50;;;;;;5035734;28;20044;-46
2020/12/20 02:05:36;;;;;;;;;;;11.40;81.50;;;;;;5048898;28;19925;-43
2020/12/20 02:08:02;;;;;;;2.37;1.70;;;11.30;81.60;;;;;;5052925;28;20390;-42
2020/12/20 02:10:28;;;;;;;2.80;1.60;;;11.30;81.50;;;;;;5052921;28;20055;-47
2020/12/20 02:12:53;;;;;;;2.08;1.88;;;11.30;81.50;;;;;;5052995;28;20045;-46
2020/12/20 02:15:19;;;;;;;2.40;1.92;;;11.40;81.50;;;;;;5048183;28;20475;-42
2020/12/20 02:17:45;;;;;;;1.90;1.70;;;11.40;81.60;;;;;;5052564;28;20052;-43
2020/12/20 02:20:10;;;;;;;1.88;1.58;;;11.40;81.50;;;;;;5046859;28;20052;-42
2020/12/20 02:22:36;;;;;;;2.35;2.05;;;11.40;81.60;;;;;;5052489;28;20048;-44
2020/12/20 02:25:03;;;;;;;3.17;1.80;;;11.40;81.60;;;;;;5052731;28;20128;-42
2020/12/20 02:27:29;;;;;;;1.95;1.65;;;11.40;81.60;;;;;;5044522;28;20486;-42
2020/12/20 02:29:54;;;;;;;1.52;1.42;;;11.40;81.50;;;;;;5047329;28;20120;-42
2020/12/20 02:32:20;;;;;;;1.63;1.52;;;11.40;81.60;;;;;;5052331;28;20513;-46
2020/12/20 02:35:06;;;;;;;2.30;1.67;;;11.40;81.60;;;;;;5033617;28;20048;-42
2020/12/20 02:37:31;;;;;;;1.70;1.60;;;11.40;81.60;;;;;;5047320;28;20048;-42
2020/12/20 02:39:58;;;;;;;2.00;1.80;;;11.40;81.60;;;;;;5052369;28;20041;-42
2020/12/20 02:42:23;;;;;;;1.98;1.75;;;11.40;81.60;;;;;;5052420;28;20049;-44
2020/12/20 02:44:49;;;;;;;1.65;1.52;;;11.40;81.60;;;;;;5052412;28;20051;-40
2020/12/20 02:47:15;;;;;;;1.70;1.60;;;11.40;81.60;;;;;;5047667;28;20041;-42
2020/12/20 02:49:41;;;;;;;1.60;1.50;;;11.40;81.60;;;;;;5046818;28;20045;-42
2020/12/20 02:52:06;;;;;;;2.05;1.85;;;11.40;81.60;;;;;;5051822;28;20045;-42
2020/12/20 02:54:52;;;;;;;2.33;1.67;;;11.40;81.60;;;;;;5034870;28;20451;-42
2020/12/20 02:57:17;;;;;;;1.60;1.50;;;11.40;81.60;;;;;;5051958;28;20049;-41
2020/12/20 02:59:43;;;;;;;1.77;1.65;;;11.40;81.60;;;;;;5044970;28;20513;-42
2020/12/20 03:02:29;;;;;;;2.53;1.80;;;11.40;81.60;;;;;;5030495;28;20463;-42
2020/12/20 03:04:54;;;;;;;2.42;1.55;;;11.40;81.60;;;;;;5052112;28;20132;-41
2020/12/20 03:07:20;;;;;;;1.75;1.55;;;11.30;81.60;;;;;;5051424;28;20469;-42
2020/12/20 03:09:46;;;;;;;1.95;1.75;;;11.40;81.60;;;;;;5048800;28;20117;-43
2020/12/20 03:12:11;;;;;;;1.98;1.60;;;11.40;81.60;;;;;;5052043;28;20045;-43
2020/12/20 03:14:57;;;;;;;2.78;1.90;;;11.40;81.60;;;;;;5035504;28;20041;-42
2020/12/20 03:17:43;;;;;;;2.33;1.70;;;11.40;81.60;;;;;;5032079;28;20098;-42
2020/12/20 03:20:28;;;;;;;2.35;1.63;;;11.40;81.60;;;;;;5030238;28;20052;-43
2020/12/20 03:22:55;;;;;;;1.83;1.73;;;11.30;81.60;;;;;;5051462;28;20186;-41
2020/12/20 03:25:21;;;;;;;2.67;1.88;;;11.40;81.60;;;;;;5046290;28;20049;-42
2020/12/20 03:27:47;;;;;;;2.20;2.00;;;11.40;81.60;;;;;;5051579;28;20189;-43
2020/12/20 03:30:13;;;;;;;1.75;1.55;;;11.40;81.60;;;;;;5048066;28;20041;-42
2020/12/20 03:32:38;;;;;;;1.80;1.70;;;11.40;81.60;;;;;;5051660;28;20073;-42
2020/12/20 03:35:04;;;;;;;1.60;1.48;;;11.40;81.60;;;;;;5051896;28;20059;-42
2020/12/20 03:37:55;;;;;;;1.98;1.77;;;11.40;81.60;;;;;;5033381;28;20045;-42
2020/12/20 03:40:22;;;;;;;2.53;1.60;;;11.40;81.60;;;;;;5050059;28;20056;-40
2020/12/20 03:42:48;;;;;;;1.73;1.60;;;11.40;81.60;;;;;;5047877;28;20500;-42
2020/12/20 03:45:18;;;;;;;1.70;1.60;;;11.40;81.60;;;;;;5051239;28;20524;-42
2020/12/20 03:47:45;;;;;;;1.90;1.70;;;11.40;81.60;;;;;;5048028;28;20140;-43
2020/12/20 03:50:10;;;;;;;2.33;1.90;;;11.40;81.60;;;;;;5055249;28;20048;-43
2020/12/20 03:52:56;;;;;;;1.92;1.70;;;11.40;81.60;;;;;;5034370;28;20715;-41
2020/12/20 03:55:22;;;;;;;3.13;1.60;;;11.40;81.60;;;;;;5055362;28;20056;-41
2020/12/20 03:57:47;;;;;;;2.15;1.77;;;11.40;81.60;;;;;;5055200;28;20041;-41
2020/12/20 04:00:13;;;;;;;1.90;1.60;;;11.40;81.60;;;;;;5055225;28;20501;-42
2020/12/20 04:02:38;;;;;;;1.58;1.48;;;11.40;81.60;;;;;;5050582;28;20481;-43
2020/12/20 04:05:24;;;;;;;1.58;1.40;;;11.40;81.60;;;;;;5029748;28;20076;-42
2020/12/20 04:07:50;;;;;;;1.52;1.40;;;11.40;81.60;;;;;;5055371;28;20473;-43
2020/12/20 04:10:35;;;;;;;1.50;1.40;;;11.40;81.70;;;;;;5038778;28;20045;-42
2020/12/20 04:13:01;;;;;;;1.75;1.55;;;11.40;81.60;;;;;;5049997;28;20094;-40
2020/12/20 04:15:27;;;;;;;1.50;1.40;;;11.40;81.60;;;;;;5055231;28;20045;-42
2020/12/20 04:17:52;;;;;;;1.60;1.50;;;11.40;81.60;;;;;;5054819;28;20041;-49
2020/12/20 04:20:18;;;;;;;1.92;1.63;;;11.40;81.60;;;;;;5054895;28;20048;-43
2020/12/20 04:22:44;;;;;;;1.33;1.23;;;11.40;81.60;;;;;;5054903;28;20059;-42
2020/12/20 04:25:09;;;;;;;1.83;1.60;;;11.40;81.60;;;;;;5048642;28;20045;-41
2020/12/20 04:27:35;;;;;;;1.83;1.52;;;11.40;81.60;;;;;;5054838;28;20413;-41
2020/12/20 04:30:01;;;;;;;1.83;1.63;;;11.30;81.60;;;;;;5054638;28;20045;-42
2020/12/20 04:32:27;;;;;;;1.77;1.50;;;11.40;81.60;;;;;;5054592;28;20536;-41
2020/12/20 04:34:52;;;;;;;2.85;1.95;;;11.40;81.60;;;;;;5051855;28;20052;-42
2020/12/20 04:37:38;;;;;;;2.03;1.77;;;11.40;81.60;;;;;;5038588;28;20052;-43
2020/12/20 04:40:05;;;;;;;2.10;1.88;;;11.40;81.60;;;;;;5054036;28;20052;-41
2020/12/20 04:42:30;;;;;;;3.22;1.75;;;11.40;81.60;;;;;;5054282;28;20162;-45
2020/12/20 04:44:57;;;;;;;1.60;1.50;;;11.40;81.60;;;;;;5051039;28;20549;-40
2020/12/20 04:47:23;;;;;;;1.45;1.35;;;11.40;81.60;;;;;;5048930;28;20048;-43
2020/12/20 04:50:11;;;;;;;1.70;1.60;;;11.40;81.60;;;;;;5035859;28;20410;-43
2020/12/20 04:52:39;;;;;;;1.67;1.58;;;11.40;81.60;;;;;;5054021;28;20099;-42
2020/12/20 04:55:05;;;;;;;1.70;1.60;;;11.40;81.60;;;;;;5050356;28;20050;-42
2020/12/20 04:57:34;;;;;;;2.00;1.80;;;11.40;81.60;;;;;;5053665;28;20481;-43
2020/12/20 05:00:21;;;;;;;2.13;1.35;;;11.40;81.60;;;;;;5037810;28;20053;-43
2020/12/20 05:02:47;;;;;;;2.50;1.83;;;11.40;81.60;;;;;;5053815;28;20045;-42
2020/12/20 05:05:13;;;;;;;1.70;1.60;;;11.40;81.60;;;;;;5053943;28;20037;-45
2020/12/20 05:07:41;;;;;;;1.48;1.38;;;11.40;81.60;;;;;;5049486;28;20051;-42
2020/12/20 05:10:40;;;;;;;1.52;1.42;;;11.40;81.60;;;;;;5031695;28;20519;-40
2020/12/20 05:13:46;;;;;;;1.98;1.65;;;11.40;81.60;;;;;;5036800;28;20045;-40
2020/12/20 05:16:34;;;;;;;2.23;1.70;;;11.40;81.60;;;;;;5035167;28;20065;-42
2020/12/20 05:19:00;;;;;;;1.45;1.33;;;11.40;81.60;;;;;;5053388;28;20425;-43
2020/12/20 05:21:30;;;;;;;2.28;1.65;;;11.40;81.60;;;;;;5053297;28;20095;-42
2020/12/20 05:23:57;;;;;;;1.75;1.60;;;11.40;81.60;;;;;;5053560;28;20069;-42
2020/12/20 05:26:27;;;;;;;2.05;1.80;;;11.40;81.60;;;;;;5047932;28;20040;-47
2020/12/20 05:29:14;;;;;;;1.60;1.45;;;11.40;81.60;;;;;;5036809;28;20554;-43
2020/12/20 05:31:40;;;;;;;2.17;1.58;;;11.40;81.60;;;;;;5053703;28;20041;-43
2020/12/20 05:34:05;;;;;;;1.50;1.40;;;11.40;81.60;;;;;;5053472;28;20045;-44
2020/12/20 05:36:31;;;;;;;1.55;1.45;;;11.40;82.30;;;;;;5053542;28;20137;-44
2020/12/20 05:39:17;;;;;;;2.05;1.42;;;11.40;81.60;;;;;;5049147;28;20041;-45
2020/12/20 05:41:43;;;;;;;2.25;1.52;;;11.40;81.60;;;;;;5052954;28;20041;-42
2020/12/20 05:44:13;;;;;;;2.50;1.70;;;11.40;81.60;;;;;;5052784;28;20045;-42
2020/12/20 05:46:43;;;;;;;1.92;1.73;;;11.40;81.60;;;;;;5053158;28;20449;-46
2020/12/20 05:49:20;;;;;;;1.50;1.40;;;11.40;81.60;;;;;;5048201;28;20041;-44
2020/12/20 05:52:02;;;;;;;3.40;1.45;;;11.40;81.60;;;;;;5048091;28;20041;-44
2020/12/20 05:54:39;;;;;;;2.22;1.73;;;11.40;81.60;;;;;;5048518;28;20509;-45
2020/12/20 05:57:25;;;;;;;1.90;1.60;;;11.40;81.60;;;;;;5047673;28;20087;-44
2020/12/20 05:59:51;;;;;;;;;;;11.40;81.60;;;;;;5044085;28;20075;-40
2020/12/20 06:02:37;;;;;;;1.50;1.40;;;11.40;81.60;;;;;;5036173;28;19935;-44
2020/12/20 06:05:03;;;;;;;1.45;1.35;;;11.40;81.60;;;;;;5046992;28;20402;-43
2020/12/20 06:07:29;;;;;;;2.38;1.65;;;11.40;81.60;;;;;;5052257;28;20052;-42
2020/12/20 06:09:59;;;;;;;1.70;1.50;;;11.30;81.60;;;;;;5049753;28;20049;-40
2020/12/20 06:12:30;;;;;;;1.60;1.42;;;11.40;81.60;;;;;;5042593;28;20077;-44
2020/12/20 06:15:19;;;;;;;1.73;1.63;;;11.40;81.60;;;;;;5036113;28;20045;-43
2020/12/20 06:17:55;;;;;;;2.03;1.58;;;11.40;81.70;;;;;;5047021;28;20045;-42
2020/12/20 06:20:29;;;;;;;1.63;1.50;;;11.40;81.60;;;;;;5048782;28;20500;-42
2020/12/20 06:23:19;;;;;;;2.33;1.80;;;11.40;81.60;;;;;;5035149;28;20398;-41
2020/12/20 06:26:05;;;;;;;1.98;1.42;;;11.40;81.70;;;;;;5032377;28;20102;-41
2020/12/20 06:28:53;;;;;;;1.88;1.67;;;11.40;81.60;;;;;;5033658;28;20045;-42
2020/12/20 06:31:41;;;;;;;1.60;1.50;;;11.40;81.70;;;;;;5032957;28;20053;-42
2020/12/20 06:34:13;;;;;;;1.73;1.50;;;11.40;81.70;;;;;;5052301;28;20049;-42
2020/12/20 06:36:40;;;;;;;1.73;1.55;;;11.40;81.70;;;;;;5051836;28;20069;-43
2020/12/20 06:39:05;;;;;;;1.48;1.38;;;11.40;81.60;;;;;;5052412;28;20052;-42
2020/12/20 06:41:35;;;;;;;3.78;1.70;;;11.40;81.70;;;;;;5049310;28;20108;-42
2020/12/20 06:44:21;;;;;;;1.95;1.40;;;11.40;81.70;;;;;;5036389;28;20041;-41
2020/12/20 06:46:46;;;;;;;1.88;1.60;;;11.40;81.70;;;;;;5051933;28;20060;-49
2020/12/20 06:49:31;;;;;;;1.35;1.23;;;11.40;81.60;;;;;;5051893;28;20037;-44
2020/12/20 06:52:17;;;;;;;1.77;1.67;;;11.40;81.70;;;;;;5048643;28;20075;-43
2020/12/20 06:54:59;;;;;;;;;;;11.40;81.70;;;;;;5032635;28;20060;-42
2020/12/20 06:57:25;;;;;;;2.30;1.70;;;11.40;81.70;;;;;;5047119;28;20003;-42
2020/12/20 07:00:11;;;;;;;1.77;1.55;;;11.30;81.60;;;;;;5033816;28;20045;-41
2020/12/20 07:02:47;;;;;;;2.08;1.52;;;11.40;81.70;;;;;;5050326;28;20049;-41
2020/12/20 07:05:33;;;;;;;1.52;1.23;;;11.40;81.70;;;;;;5046890;28;20052;-42
2020/12/20 07:08:22;;;;;;;3.05;1.60;;;11.40;81.70;;;;;;5050440;28;20123;-44
2020/12/20 07:10:56;;;;;;;1.90;1.42;;;11.40;81.70;;;;;;5040646;28;20401;-40
2020/12/20 07:13:43;;;;;;;1.65;1.42;;;11.40;81.70;;;;;;5027649;28;20099;-47
2020/12/20 07:16:12;;;;;;;1.58;1.48;;;11.30;82.30;;;;;;5031146;28;20511;-44
2020/12/20 07:18:38;;;;;;;1.83;1.63;;;11.40;81.70;;;;;;5031201;28;20493;-47
2020/12/20 07:21:04;;;;;;;1.48;1.38;;;11.40;81.70;;;;;;5032273;28;20080;-43
2020/12/20 07:23:29;;;;;;;2.05;1.48;;;11.40;81.70;;;;;;5034366;28;20137;-47
2020/12/20 07:25:57;;;;;;;1.90;1.48;;;11.40;81.70;;;;;;5030610;28;20529;-43
2020/12/20 07:28:43;;;;;;;1.48;1.30;;;11.40;81.70;;;;;;5018668;28;20073;-43
2020/12/20 07:31:19;;;;;;;1.92;1.40;;;11.40;81.70;;;;;;5035268;28;20576;-49
2020/12/20 07:33:47;;;;;;;1.40;1.30;;;11.40;81.70;;;;;;5035610;28;20494;-42
2020/12/20 07:36:13;;;;;;;2.20;1.85;;;11.40;81.70;;;;;;5033582;28;20041;-43
2020/12/20 07:38:40;;;;;;;2.13;1.70;;;11.40;81.70;;;;;;5035673;28;20045;-42
2020/12/20 07:41:07;;;;;;;1.73;1.52;;;11.40;81.70;;;;;;5035531;28;20044;-43
2020/12/20 07:43:53;;;;;;;2.25;1.52;;;11.40;81.70;;;;;;5019761;28;20053;-43
2020/12/20 07:46:20;;;;;;;1.48;1.38;;;11.40;81.70;;;;;;5034151;28;20041;-43
2020/12/20 07:49:14;;;;;;;2.08;1.38;;;11.40;81.70;;;;;;5019024;28;20128;-43
2020/12/20 07:51:40;;;;;;;2.25;1.55;;;11.40;81.70;;;;;;5032754;28;20046;-43
2020/12/20 07:54:11;;;;;;;2.42;1.70;;;11.40;81.70;;;;;;5035069;28;20046;-42
2020/12/20 07:56:56;;;;;;;1.63;1.52;;;11.40;81.70;;;;;;5012279;28;20077;-44
2020/12/20 07:59:22;;;;;;;1.50;1.40;;;11.40;81.70;;;;;;5023012;28;20099;-47
2020/12/20 08:02:07;;;;;;;1.63;1.52;;;11.40;81.70;;;;;;5021183;28;20413;-40
2020/12/20 08:04:33;;;;;;;1.80;1.67;;;11.40;81.70;;;;;;5035726;28;20050;-46
2020/12/20 08:06:59;;;;;;;1.60;1.50;;;11.40;81.70;;;;;;5035426;28;20045;-42
2020/12/20 08:09:26;;;;;;;2.05;1.60;;;11.40;81.70;;;;;;5034836;28;20064;-40
2020/12/20 08:11:53;;;;;;;1.73;1.40;;;11.40;81.70;;;;;;5034293;28;20104;-42
2020/12/20 08:14:23;;;;;;;2.92;1.67;;;11.40;81.70;;;;;;5035085;28;20045;-42
2020/12/20 08:16:50;;;;;;;1.73;1.63;;;11.40;81.70;;;;;;5034644;28;20129;-42
2020/12/20 08:19:24;;;;;;;1.95;1.75;;;11.40;81.60;;;;;;5030514;28;20052;-55
2020/12/20 08:22:05;;;;;;;1.50;1.40;;;11.40;81.70;;;;;;5035178;28;20179;-44
2020/12/20 08:24:37;;;;;;;10.65;4.80;;;11.40;81.60;;;;;;5034256;28;20103;-45
2020/12/20 08:27:23;;;;;;;8.52;3.97;;;11.30;81.80;;;;;;5035359;28;20490;-46
2020/12/20 08:29:51;;;;;;;10.80;4.30;;;11.10;81.30;;;;;;5019670;28;20507;-46
2020/12/20 08:32:43;;;;;;;10.45;4.25;;;11.10;81.50;;;;;;5000911;28;20050;-44
2020/12/20 08:35:13;;;;;;;9.35;4.57;;;11.10;81.70;;;;;;5015352;28;20415;-46
2020/12/20 08:38:00;;;;;;;9.23;4.93;;;11.10;81.70;;;;;;5000593;28;20548;-45
2020/12/20 08:40:34;;;;;;;9.07;4.43;;;11.10;81.70;;;;;;5016239;28;20049;-44
2020/12/20 08:43:01;;;;;;;6.00;4.22;;;11.10;81.80;;;;;;5015444;28;20096;-45
2020/12/20 08:45:28;;;;;;;6.68;3.60;;;11.10;81.80;;;;;;5015463;28;20068;-45
2020/12/20 08:48:19;;;;;;;7.07;4.03;;;11.20;81.80;;;;;;5000413;28;20549;-45
2020/12/20 08:50:45;;;;;;;7.28;3.88;;;11.20;81.80;;;;;;5014688;28;20104;-46
2020/12/20 08:53:10;;;;;;;7.00;4.47;;;11.10;81.80;;;;;;5014939;28;20050;-45
2020/12/20 08:55:36;;;;;;;7.15;4.38;;;11.20;81.80;;;;;;5019054;28;20049;-44
2020/12/20 08:58:06;;;;;;;5.97;4.00;;;11.20;81.80;;;;;;5020292;28;20069;-43
2020/12/20 09:00:33;;;;;;;7.18;4.10;;;11.20;81.80;;;;;;5034813;28;20068;-45
2020/12/20 09:03:03;;;;;;;6.43;3.80;;;11.20;81.70;;;;;;5034515;28;20053;-46
2020/12/20 09:05:34;;;;;;;5.05;3.55;;;11.20;81.70;;;;;;5032923;28;20048;-49
2020/12/20 09:08:02;;;;;;;5.05;3.65;;;11.20;81.70;;;;;;5034553;28;20553;-49
2020/12/20 09:10:30;;;;;;;6.47;3.17;;;11.20;81.70;;;;;;5034673;28;20042;-49
2020/12/20 09:13:24;;;;;;;5.60;3.72;;;11.30;81.80;;;;;;5019948;28;20053;-48
2020/12/20 09:15:54;;;;;;;7.22;3.78;;;11.30;81.80;;;;;;5032940;28;20096;-50
2020/12/20 09:18:40;;;;;;;8.13;3.78;;;11.20;81.70;;;;;;5019389;28;20486;-49
2020/12/20 09:21:05;;;;;;;7.40;3.53;;;11.30;81.80;;;;;;5034218;28;20085;-45
2020/12/20 09:24:00;;;;;;;5.80;3.33;;;11.30;81.70;;;;;;5019432;28;20045;-46
2020/12/20 09:26:26;;;;;;;4.40;3.30;;;11.30;81.70;;;;;;5032615;28;20050;-46
2020/12/20 09:28:51;;;;;;;5.50;3.80;;;11.30;82.40;;;;;;5027541;28;20053;-46
2020/12/20 09:31:19;;;;;;;3.95;3.03;;;11.30;81.80;;;;;;5014387;28;20061;-44
2020/12/20 09:33:49;;;;;;;5.03;3.47;;;11.30;81.70;;;;;;5014187;28;20045;-45
2020/12/20 09:36:24;;;;;;;5.60;3.38;;;11.30;81.70;;;;;;5014435;28;20050;-45
2020/12/20 09:38:55;;;;;;;4.78;3.00;;;11.30;81.70;;;;;;5015433;28;20054;-45
2020/12/20 09:41:25;;;;;;;5.05;3.67;;;11.30;81.70;;;;;;5014061;28;20049;-43
2020/12/20 09:43:53;;;;;;;5.22;3.78;;;11.30;81.70;;;;;;5014423;28;20050;-44
2020/12/20 09:46:39;;;;;;;7.80;3.60;;;11.30;81.70;;;;;;4999151;28;20445;-43
2020/12/20 09:49:05;;;;;;;11.10;4.15;;;11.30;81.70;;;;;;5015546;28;20069;-40
2020/12/20 09:51:33;;;;;;;7.05;4.30;;;11.20;81.50;;;;;;5029809;28;20491;-46
2020/12/20 09:54:19;;;;;;;7.00;4.68;;;11.20;81.70;;;;;;5019228;28;20049;-46
2020/12/20 09:57:07;;;;;;;8.90;3.88;;;11.20;81.80;;;;;;5019130;28;20132;-46
2020/12/20 09:59:33;;;;;;;7.18;3.83;;;11.20;81.80;;;;;;5033706;28;20088;-43
2020/12/20 10:01:58;;;;;;;9.20;4.25;;;11.20;81.80;;;;;;5033084;28;20506;-45
2020/12/20 10:04:24;;;;;;;7.35;4.18;;;11.20;81.90;;;;;;5032819;28;20053;-48
2020/12/20 10:07:10;;;;;;;4.82;3.38;;;11.20;81.90;;;;;;5018708;28;20045;-43
2020/12/20 10:09:55;;;;;;;5.55;3.92;;;11.20;82.00;;;;;;5005180;28;20146;-42
2020/12/20 10:12:21;;;;;;;4.93;3.35;;;11.20;82.00;;;;;;5033686;28;20466;-41
2020/12/20 10:14:46;;;;;;;6.30;3.83;;;11.20;82.00;;;;;;5033545;28;20544;-47
2020/12/20 10:17:12;;;;;;;8.65;3.70;;;11.20;82.00;;;;;;5033243;28;20041;-45
2020/12/20 10:19:38;;;;;;;10.20;3.97;;;11.20;82.10;;;;;;5032845;28;20072;-48
2020/12/20 10:22:03;;;;;;;4.28;3.22;;;11.30;82.10;;;;;;5033066;28;20440;-44
2020/12/20 10:24:29;;;;;;;7.18;3.95;;;11.20;82.00;;;;;;5024998;28;20049;-46
2020/12/20 10:27:17;;;;;;;5.60;3.65;;;11.30;82.10;;;;;;5018416;28;20406;-40
2020/12/20 10:30:03;;;;;;;4.32;3.28;;;11.20;82.10;;;;;;5018620;28;20508;-46
2020/12/20 10:32:50;;;;;;;6.65;3.85;;;11.30;82.10;;;;;;5007295;28;20060;-47
2020/12/20 10:35:36;;;;;;;8.73;3.65;;;11.20;82.00;;;;;;5016615;28;20144;-46
2020/12/20 10:38:22;;;;;;;5.20;3.10;;;11.30;82.10;;;;;;5006451;28;20091;-42
2020/12/20 10:40:47;;;;;;;4.43;3.40;;;11.30;82.10;;;;;;5032817;28;20050;-46
2020/12/20 10:43:13;;;;;;;5.40;3.22;;;11.30;82.10;;;;;;5032834;28;20132;-44
2020/12/20 10:45:39;;;;;;;5.07;3.22;;;11.30;82.10;;;;;;5032981;28;20099;-45
2020/12/20 10:48:05;;;;;;;4.13;3.10;;;11.30;82.10;;;;;;5032962;28;20406;-45
2020/12/20 10:50:50;;;;;;;4.72;3.20;;;11.30;82.10;;;;;;5009982;28;20076;-47
2020/12/20 10:53:16;;;;;;;4.50;3.63;;;11.30;82.10;;;;;;5027593;28;20076;-47
2020/12/20 10:56:01;;;;;;;5.88;3.35;;;11.30;82.10;;;;;;5014945;28;20045;-44
2020/12/20 10:58:50;;;;;;;5.05;2.92;;;11.30;82.00;;;;;;5009193;28;20042;-47
2020/12/20 11:01:36;;;;;;;5.22;3.10;;;11.30;82.10;;;;;;5009060;28;20046;-47
2020/12/20 11:04:23;;;;;;;4.05;3.25;;;11.30;82.10;;;;;;5015104;28;20046;-47
2020/12/20 11:06:48;;;;;;;3.72;2.60;;;11.30;82.10;;;;;;5028639;28;20046;-46
2020/12/20 11:09:14;;;;;;;5.32;3.17;;;11.30;82.00;;;;;;5028728;28;20048;-44
2020/12/20 11:12:02;;;;;;;8.25;4.50;;;11.30;82.00;;;;;;5013835;28;20471;-41
2020/12/20 11:14:48;;;;;;;7.05;4.10;;;11.30;82.10;;;;;;5015340;28;20128;-41
2020/12/20 11:17:34;;;;;;;5.57;4.00;;;11.30;82.10;;;;;;5014818;28;20041;-41
2020/12/20 11:20:19;;;;;;;5.63;4.00;;;11.30;82.10;;;;;;5014899;28;20494;-41
2020/12/20 11:22:45;;;;;;;5.60;3.92;;;11.30;82.00;;;;;;5028729;28;20077;-41
2020/12/20 11:25:32;;;;;;;6.28;4.15;;;11.30;82.10;;;;;;5018041;28;20073;-41
2020/12/20 11:28:18;;;;;;;7.97;3.95;;;11.30;82.00;;;;;;5012563;28;20164;-41
2020/12/20 11:31:04;;;;;;;9.80;3.75;;;11.30;82.00;;;;;;5015333;28;20046;-41
2020/12/20 11:33:31;;;;;;;6.80;3.75;;;11.30;82.10;;;;;;5029958;28;20052;-41
2020/12/20 11:35:56;;;;;;;6.03;3.95;;;11.30;82.00;;;;;;5026083;28;20048;-41
2020/12/20 11:38:43;;;;;;;11.27;4.32;;;11.30;81.90;;;;;;5011899;28;20099;-41
2020/12/20 11:41:09;;;;;;;9.73;5.95;;;11.30;82.00;;;;;;5029612;28;20053;-39
2020/12/20 11:43:35;;;;;;;8.05;4.85;;;11.30;81.90;;;;;;5029051;28;20089;-39
2020/12/20 11:46:00;;;;;;;6.93;4.25;;;11.30;81.90;;;;;;5029294;28;20054;-40
2020/12/20 11:48:47;;;;;;;9.52;4.60;;;11.30;81.90;;;;;;5013838;28;20567;-40
2020/12/20 11:51:14;;;;;;;6.50;4.18;;;11.30;81.90;;;;;;5028683;28;20073;-40
2020/12/20 11:53:40;;;;;;;5.72;4.50;;;11.30;82.00;;;;;;5026805;28;20119;-40
2020/12/20 11:56:26;;;;;;;6.93;4.55;;;11.30;81.90;;;;;;5013899;28;20585;-40
2020/12/20 11:58:52;;;;;;;7.95;4.75;;;11.30;81.90;;;;;;5029481;28;20128;-42
2020/12/20 12:01:22;;;;;;;6.82;3.80;;;11.30;81.90;;;;;;4994139;28;20144;-43
2020/12/20 12:03:48;;;;;;;7.07;4.30;;;11.30;81.90;;;;;;5026745;28;20081;-42
2020/12/20 12:06:14;;;;;;;7.88;4.07;;;11.30;82.00;;;;;;5028687;28;20065;-40
2020/12/20 12:08:59;;;;;;;6.20;4.15;;;11.30;81.90;;;;;;5016578;28;20057;-43
2020/12/20 12:11:25;;;;;;;4.88;3.80;;;11.30;81.90;;;;;;5033133;28;20049;-43
2020/12/20 12:14:11;;;;;;;8.18;4.43;;;11.40;82.00;;;;;;5015546;28;20387;-42
2020/12/20 12:16:36;;;;;;;7.97;3.92;;;11.30;81.90;;;;;;5032057;28;20148;-40
2020/12/20 12:19:02;;;;;;;4.45;3.50;;;11.40;82.00;;;;;;5032663;28;20048;-38
2020/12/20 12:21:28;;;;;;;3.92;3.28;;;11.40;82.00;;;;;;5024766;28;20420;-40
2020/12/20 12:23:53;;;;;;;5.97;4.15;;;11.40;81.90;;;;;;5021200;28;20073;-43
2020/12/20 12:26:39;;;;;;;6.28;3.97;;;11.40;81.90;;;;;;5014205;28;20136;-39
2020/12/20 12:29:25;;;;;;;6.22;3.75;;;11.40;81.90;;;;;;5014551;28;20057;-41
2020/12/20 12:32:10;;;;;;;7.63;3.88;;;11.40;81.90;;;;;;5004998;28;20053;-38
2020/12/20 12:34:36;;;;;;;6.60;3.92;;;11.40;81.90;;;;;;5031758;28;20041;-38
2020/12/20 12:37:22;;;;;;;7.03;3.67;;;11.40;81.90;;;;;;5028015;28;20497;-40
2020/12/20 12:39:48;;;;;;;5.28;3.60;;;11.40;81.90;;;;;;5013526;28;20061;-40
2020/12/20 12:42:14;;;;;;;5.95;3.47;;;11.40;81.90;;;;;;5041794;28;20045;-40
2020/12/20 12:44:42;;;;;;;5.28;3.30;;;11.40;81.80;;;;;;5042270;28;20494;-39
2020/12/20 12:47:09;;;;;;;6.28;3.53;;;11.40;81.80;;;;;;5043346;28;20052;-40
2020/12/20 12:49:35;;;;;;;5.50;3.65;;;11.40;81.80;;;;;;5036790;28;20049;-38
2020/12/20 12:52:01;;;;;;;5.57;3.88;;;11.40;81.80;;;;;;5030328;28;20375;-38
2020/12/20 12:54:27;;;;;;;5.13;3.30;;;11.40;81.80;;;;;;5017684;28;20045;-38
2020/12/20 12:57:12;;;;;;;6.68;4.05;;;11.40;81.80;;;;;;5024080;28;20099;-40
2020/12/20 12:59:38;;;;;;;5.32;3.22;;;11.40;81.80;;;;;;5038963;28;20057;-40
2020/12/20 13:02:05;;;;;;;4.50;3.05;;;11.40;81.70;;;;;;5042172;28;20444;-42
2020/12/20 13:04:31;;;;;;;4.88;3.13;;;11.40;81.70;;;;;;5040193;28;20133;-40
2020/12/20 13:06:56;;;;;;;5.32;3.20;;;11.40;81.70;;;;;;5031292;28;20476;-40
2020/12/20 13:09:22;;;;;;;5.15;3.05;;;11.40;81.70;;;;;;5039041;28;20144;-38
2020/12/20 13:11:48;;;;;;;5.20;3.03;;;11.40;81.70;;;;;;5030594;28;20060;-40
2020/12/20 13:14:14;;;;;;;4.72;3.28;;;11.40;81.70;;;;;;5041408;28;20045;-40
2020/12/20 13:17:00;;;;;;;;;;;11.40;81.60;;;;;;5027434;28;20379;-38